sensor_id;sensor_type;location;lat;lon;timestamp;P1;durP1;ratioP1;P2;durP2;ratioP2
17985;SDS011;9118;48.122;11.546;2022-11-12T00:00:45;23.30;;;15.60;;
17985;SDS011;9118;48.122;11.546;2022-11-12T00:03:16;20.17;;;14.83;;
17985;SDS011;9118;48.122;11.546;2022-11-12T00:05:43;20.40;;;14.47;;
17985;SDS011;9118;48.122;11.546;2022-11-12T00:08:13;21.37;;;15.10;;
17985;SDS011;9118;48.122;11.546;2022-11-12T00:10:40;21.43;;;14.27;;
17985;SDS011;9118;48.122;11.546;2022-11-12T00:13:08;24.47;;;14.20;;
17985;SDS011;9118;48.122;11.546;2022-11-12T00:15:35;18.77;;;13.33;;
17985;SDS011;9118;48.122;11.546;2022-11-12T00:18:02;20.00;;;13.63;;
17985;SDS011;9118;48.122;11.546;2022-11-12T00:20:31;17.20;;;13.80;;
17985;SDS011;9118;48.122;11.546;2022-11-12T00:22:59;20.17;;;14.70;;
17985;SDS011;9118;48.122;11.546;2022-11-12T00:25:26;18.93;;;13.60;;
17985;SDS011;9118;48.122;11.546;2022-11-12T00:27:59;24.97;;;15.30;;
17985;SDS011;9118;48.122;11.546;2022-11-12T00:30:27;22.90;;;14.87;;
17985;SDS011;9118;48.122;11.546;2022-11-12T00:32:55;19.37;;;13.80;;
17985;SDS011;9118;48.122;11.546;2022-11-12T00:35:22;18.67;;;13.50;;
17985;SDS011;9118;48.122;11.546;2022-11-12T00:37:53;21.33;;;14.43;;
17985;SDS011;9118;48.122;11.546;2022-11-12T00:40:21;28.57;;;16.90;;
17985;SDS011;9118;48.122;11.546;2022-11-12T00:42:49;22.13;;;14.47;;
17985;SDS011;9118;48.122;11.546;2022-11-12T00:45:18;20.10;;;14.43;;
17985;SDS011;9118;48.122;11.546;2022-11-12T00:47:46;21.10;;;14.77;;
17985;SDS011;9118;48.122;11.546;2022-11-12T00:50:13;22.47;;;15.50;;
17985;SDS011;9118;48.122;11.546;2022-11-12T00:52:41;24.37;;;16.10;;
17985;SDS011;9118;48.122;11.546;2022-11-12T00:55:10;18.97;;;13.87;;
17985;SDS011;9118;48.122;11.546;2022-11-12T00:57:37;19.73;;;14.03;;
17985;SDS011;9118;48.122;11.546;2022-11-12T01:00:05;22.97;;;14.33;;
17985;SDS011;9118;48.122;11.546;2022-11-12T01:02:33;19.73;;;13.80;;
17985;SDS011;9118;48.122;11.546;2022-11-12T01:05:00;25.90;;;14.60;;
17985;SDS011;9118;48.122;11.546;2022-11-12T01:07:28;20.23;;;13.57;;
17985;SDS011;9118;48.122;11.546;2022-11-12T01:09:55;18.87;;;13.60;;
17985;SDS011;9118;48.122;11.546;2022-11-12T01:12:23;21.53;;;14.60;;
17985;SDS011;9118;48.122;11.546;2022-11-12T01:14:51;20.23;;;14.17;;
17985;SDS011;9118;48.122;11.546;2022-11-12T01:17:18;18.70;;;13.40;;
17985;SDS011;9118;48.122;11.546;2022-11-12T01:19:45;21.43;;;13.97;;
17985;SDS011;9118;48.122;11.546;2022-11-12T01:22:13;25.80;;;15.43;;
17985;SDS011;9118;48.122;11.546;2022-11-12T01:24:40;28.40;;;20.00;;
17985;SDS011;9118;48.122;11.546;2022-11-12T01:27:07;35.40;;;23.33;;
17985;SDS011;9118;48.122;11.546;2022-11-12T01:29:36;33.87;;;25.37;;
17985;SDS011;9118;48.122;11.546;2022-11-12T01:32:04;40.67;;;29.87;;
17985;SDS011;9118;48.122;11.546;2022-11-12T01:34:32;41.03;;;28.87;;
17985;SDS011;9118;48.122;11.546;2022-11-12T01:36:59;40.93;;;28.73;;
17985;SDS011;9118;48.122;11.546;2022-11-12T01:39:27;40.07;;;28.63;;
17985;SDS011;9118;48.122;11.546;2022-11-12T01:41:54;41.50;;;28.73;;
17985;SDS011;9118;48.122;11.546;2022-11-12T01:44:22;38.83;;;27.30;;
17985;SDS011;9118;48.122;11.546;2022-11-12T01:46:59;38.70;;;27.60;;
17985;SDS011;9118;48.122;11.546;2022-11-12T01:49:32;41.47;;;28.30;;
17985;SDS011;9118;48.122;11.546;2022-11-12T01:52:11;40.17;;;28.37;;
17985;SDS011;9118;48.122;11.546;2022-11-12T01:54:47;42.50;;;28.27;;
17985;SDS011;9118;48.122;11.546;2022-11-12T01:57:17;37.97;;;27.37;;
17985;SDS011;9118;48.122;11.546;2022-11-12T01:59:51;37.10;;;26.53;;
17985;SDS011;9118;48.122;11.546;2022-11-12T02:02:23;40.80;;;27.60;;
17985;SDS011;9118;48.122;11.546;2022-11-12T02:04:51;46.70;;;29.17;;
17985;SDS011;9118;48.122;11.546;2022-11-12T02:07:19;40.13;;;28.00;;
17985;SDS011;9118;48.122;11.546;2022-11-12T02:09:49;38.87;;;27.37;;
17985;SDS011;9118;48.122;11.546;2022-11-12T02:12:17;39.90;;;27.93;;
17985;SDS011;9118;48.122;11.546;2022-11-12T02:14:58;41.10;;;26.83;;
17985;SDS011;9118;48.122;11.546;2022-11-12T02:17:27;36.93;;;26.60;;
17985;SDS011;9118;48.122;11.546;2022-11-12T02:19:57;40.20;;;27.90;;
17985;SDS011;9118;48.122;11.546;2022-11-12T02:22:26;37.63;;;26.87;;
17985;SDS011;9118;48.122;11.546;2022-11-12T02:24:53;36.60;;;26.83;;
17985;SDS011;9118;48.122;11.546;2022-11-12T02:27:23;34.93;;;25.47;;
17985;SDS011;9118;48.122;11.546;2022-11-12T02:29:52;38.17;;;25.87;;
17985;SDS011;9118;48.122;11.546;2022-11-12T02:32:20;35.07;;;24.67;;
17985;SDS011;9118;48.122;11.546;2022-11-12T02:34:47;35.33;;;24.77;;
17985;SDS011;9118;48.122;11.546;2022-11-12T02:37:15;36.30;;;25.00;;
17985;SDS011;9118;48.122;11.546;2022-11-12T02:39:43;35.23;;;25.63;;
17985;SDS011;9118;48.122;11.546;2022-11-12T02:42:11;31.83;;;23.43;;
17985;SDS011;9118;48.122;11.546;2022-11-12T02:44:38;31.20;;;22.10;;
17985;SDS011;9118;48.122;11.546;2022-11-12T02:47:05;34.10;;;23.63;;
17985;SDS011;9118;48.122;11.546;2022-11-12T02:49:32;31.97;;;23.63;;
17985;SDS011;9118;48.122;11.546;2022-11-12T02:52:00;30.30;;;22.80;;
17985;SDS011;9118;48.122;11.546;2022-11-12T02:54:27;31.57;;;23.00;;
17985;SDS011;9118;48.122;11.546;2022-11-12T02:56:56;32.83;;;23.23;;
17985;SDS011;9118;48.122;11.546;2022-11-12T02:59:24;32.73;;;23.47;;
17985;SDS011;9118;48.122;11.546;2022-11-12T03:01:51;33.83;;;23.37;;
17985;SDS011;9118;48.122;11.546;2022-11-12T03:04:18;32.60;;;22.40;;
17985;SDS011;9118;48.122;11.546;2022-11-12T03:06:46;32.67;;;23.67;;
17985;SDS011;9118;48.122;11.546;2022-11-12T03:09:13;32.50;;;23.13;;
17985;SDS011;9118;48.122;11.546;2022-11-12T03:11:41;33.17;;;23.20;;
17985;SDS011;9118;48.122;11.546;2022-11-12T03:14:10;32.00;;;23.30;;
17985;SDS011;9118;48.122;11.546;2022-11-12T03:16:38;31.17;;;22.90;;
17985;SDS011;9118;48.122;11.546;2022-11-12T03:19:06;32.87;;;23.40;;
17985;SDS011;9118;48.122;11.546;2022-11-12T03:21:33;32.10;;;22.40;;
17985;SDS011;9118;48.122;11.546;2022-11-12T03:24:01;29.67;;;21.67;;
17985;SDS011;9118;48.122;11.546;2022-11-12T03:26:28;30.40;;;21.53;;
17985;SDS011;9118;48.122;11.546;2022-11-12T03:28:56;31.53;;;22.33;;
17985;SDS011;9118;48.122;11.546;2022-11-12T03:31:25;33.63;;;22.83;;
17985;SDS011;9118;48.122;11.546;2022-11-12T03:33:53;30.43;;;21.97;;
17985;SDS011;9118;48.122;11.546;2022-11-12T03:36:20;29.73;;;21.03;;
17985;SDS011;9118;48.122;11.546;2022-11-12T03:38:49;30.63;;;22.33;;
17985;SDS011;9118;48.122;11.546;2022-11-12T03:41:16;28.80;;;21.40;;
17985;SDS011;9118;48.122;11.546;2022-11-12T03:43:43;32.60;;;22.40;;
17985;SDS011;9118;48.122;11.546;2022-11-12T03:46:11;31.53;;;21.43;;
17985;SDS011;9118;48.122;11.546;2022-11-12T03:48:40;30.67;;;22.00;;
17985;SDS011;9118;48.122;11.546;2022-11-12T03:51:08;30.77;;;21.60;;
17985;SDS011;9118;48.122;11.546;2022-11-12T03:53:36;30.10;;;21.27;;
17985;SDS011;9118;48.122;11.546;2022-11-12T03:56:03;35.97;;;22.40;;
17985;SDS011;9118;48.122;11.546;2022-11-12T03:58:31;37.73;;;23.30;;
17985;SDS011;9118;48.122;11.546;2022-11-12T04:00:59;43.10;;;22.80;;
17985;SDS011;9118;48.122;11.546;2022-11-12T04:03:26;46.17;;;22.93;;
17985;SDS011;9118;48.122;11.546;2022-11-12T04:05:55;41.37;;;24.60;;
17985;SDS011;9118;48.122;11.546;2022-11-12T04:08:40;43.47;;;23.73;;
17985;SDS011;9118;48.122;11.546;2022-11-12T04:11:09;35.57;;;21.63;;
17985;SDS011;9118;48.122;11.546;2022-11-12T04:13:40;42.03;;;24.00;;
17985;SDS011;9118;48.122;11.546;2022-11-12T04:16:08;43.10;;;24.20;;
17985;SDS011;9118;48.122;11.546;2022-11-12T04:18:54;44.03;;;21.63;;
17985;SDS011;9118;48.122;11.546;2022-11-12T04:21:42;41.30;;;22.00;;
17985;SDS011;9118;48.122;11.546;2022-11-12T04:24:16;40.70;;;22.07;;
17985;SDS011;9118;48.122;11.546;2022-11-12T04:27:02;41.23;;;22.03;;
17985;SDS011;9118;48.122;11.546;2022-11-12T04:29:30;46.97;;;21.83;;
17985;SDS011;9118;48.122;11.546;2022-11-12T04:32:14;34.80;;;21.37;;
17985;SDS011;9118;48.122;11.546;2022-11-12T04:34:42;43.73;;;21.50;;
17985;SDS011;9118;48.122;11.546;2022-11-12T04:37:11;75.37;;;21.70;;
17985;SDS011;9118;48.122;11.546;2022-11-12T04:39:38;43.60;;;20.90;;
17985;SDS011;9118;48.122;11.546;2022-11-12T04:42:07;73.33;;;21.47;;
17985;SDS011;9118;48.122;11.546;2022-11-12T04:44:52;55.97;;;21.37;;
17985;SDS011;9118;48.122;11.546;2022-11-12T04:47:29;40.40;;;21.07;;
17985;SDS011;9118;48.122;11.546;2022-11-12T04:49:59;36.77;;;20.50;;
17985;SDS011;9118;48.122;11.546;2022-11-12T04:52:30;47.53;;;21.50;;
17985;SDS011;9118;48.122;11.546;2022-11-12T04:54:57;38.23;;;20.40;;
17985;SDS011;9118;48.122;11.546;2022-11-12T04:57:25;47.53;;;21.07;;
17985;SDS011;9118;48.122;11.546;2022-11-12T04:59:53;51.20;;;20.80;;
17985;SDS011;9118;48.122;11.546;2022-11-12T05:02:21;54.77;;;20.17;;
17985;SDS011;9118;48.122;11.546;2022-11-12T05:04:48;42.23;;;19.00;;
17985;SDS011;9118;48.122;11.546;2022-11-12T05:07:16;40.70;;;19.47;;
17985;SDS011;9118;48.122;11.546;2022-11-12T05:09:44;51.60;;;20.17;;
17985;SDS011;9118;48.122;11.546;2022-11-12T05:12:13;54.33;;;19.97;;
17985;SDS011;9118;48.122;11.546;2022-11-12T05:14:41;48.40;;;20.67;;
17985;SDS011;9118;48.122;11.546;2022-11-12T05:17:08;55.43;;;19.13;;
17985;SDS011;9118;48.122;11.546;2022-11-12T05:19:36;47.27;;;19.60;;
17985;SDS011;9118;48.122;11.546;2022-11-12T05:22:03;54.50;;;20.27;;
17985;SDS011;9118;48.122;11.546;2022-11-12T05:24:29;44.73;;;18.40;;
17985;SDS011;9118;48.122;11.546;2022-11-12T05:26:58;32.33;;;19.07;;
17985;SDS011;9118;48.122;11.546;2022-11-12T05:29:26;33.77;;;16.93;;
17985;SDS011;9118;48.122;11.546;2022-11-12T05:31:53;39.73;;;17.10;;
17985;SDS011;9118;48.122;11.546;2022-11-12T05:34:21;36.20;;;15.67;;
17985;SDS011;9118;48.122;11.546;2022-11-12T05:36:49;37.73;;;16.37;;
17985;SDS011;9118;48.122;11.546;2022-11-12T05:39:17;35.43;;;16.47;;
17985;SDS011;9118;48.122;11.546;2022-11-12T05:41:45;35.20;;;16.80;;
17985;SDS011;9118;48.122;11.546;2022-11-12T05:44:14;36.27;;;16.23;;
17985;SDS011;9118;48.122;11.546;2022-11-12T05:46:42;31.73;;;16.07;;
17985;SDS011;9118;48.122;11.546;2022-11-12T05:49:09;28.07;;;15.70;;
17985;SDS011;9118;48.122;11.546;2022-11-12T05:51:37;39.77;;;16.43;;
17985;SDS011;9118;48.122;11.546;2022-11-12T05:54:05;22.77;;;15.73;;
17985;SDS011;9118;48.122;11.546;2022-11-12T05:56:32;19.27;;;14.60;;
17985;SDS011;9118;48.122;11.546;2022-11-12T05:59:00;23.80;;;15.07;;
17985;SDS011;9118;48.122;11.546;2022-11-12T06:01:29;27.87;;;15.43;;
17985;SDS011;9118;48.122;11.546;2022-11-12T06:03:57;20.67;;;14.20;;
17985;SDS011;9118;48.122;11.546;2022-11-12T06:06:25;25.33;;;13.80;;
17985;SDS011;9118;48.122;11.546;2022-11-12T06:08:52;25.87;;;15.20;;
17985;SDS011;9118;48.122;11.546;2022-11-12T06:11:20;22.63;;;13.63;;
17985;SDS011;9118;48.122;11.546;2022-11-12T06:13:47;30.50;;;14.37;;
17985;SDS011;9118;48.122;11.546;2022-11-12T06:16:15;18.60;;;14.33;;
17985;SDS011;9118;48.122;11.546;2022-11-12T06:18:44;21.47;;;14.87;;
17985;SDS011;9118;48.122;11.546;2022-11-12T06:21:11;19.57;;;14.50;;
17985;SDS011;9118;48.122;11.546;2022-11-12T06:23:47;25.17;;;14.83;;
17985;SDS011;9118;48.122;11.546;2022-11-12T06:26:15;27.90;;;14.77;;
17985;SDS011;9118;48.122;11.546;2022-11-12T06:28:43;18.90;;;14.77;;
17985;SDS011;9118;48.122;11.546;2022-11-12T06:31:12;23.87;;;15.93;;
17985;SDS011;9118;48.122;11.546;2022-11-12T06:33:39;23.50;;;14.73;;
17985;SDS011;9118;48.122;11.546;2022-11-12T06:36:12;18.30;;;11.87;;
17985;SDS011;9118;48.122;11.546;2022-11-12T06:38:40;26.43;;;11.80;;
17985;SDS011;9118;48.122;11.546;2022-11-12T06:41:09;15.90;;;12.07;;
17985;SDS011;9118;48.122;11.546;2022-11-12T06:43:38;20.33;;;11.67;;
17985;SDS011;9118;48.122;11.546;2022-11-12T06:46:07;14.93;;;11.47;;
17985;SDS011;9118;48.122;11.546;2022-11-12T06:48:38;18.47;;;11.97;;
17985;SDS011;9118;48.122;11.546;2022-11-12T06:51:07;22.60;;;12.50;;
17985;SDS011;9118;48.122;11.546;2022-11-12T06:53:38;17.67;;;11.63;;
17985;SDS011;9118;48.122;11.546;2022-11-12T06:56:06;19.90;;;12.20;;
17985;SDS011;9118;48.122;11.546;2022-11-12T06:58:34;15.27;;;11.67;;
17985;SDS011;9118;48.122;11.546;2022-11-12T07:01:06;19.17;;;11.37;;
17985;SDS011;9118;48.122;11.546;2022-11-12T07:03:35;15.10;;;11.43;;
17985;SDS011;9118;48.122;11.546;2022-11-12T07:06:04;13.80;;;10.97;;
17985;SDS011;9118;48.122;11.546;2022-11-12T07:08:32;15.63;;;11.30;;
17985;SDS011;9118;48.122;11.546;2022-11-12T07:11:01;27.77;;;11.40;;
17985;SDS011;9118;48.122;11.546;2022-11-12T07:13:29;21.27;;;10.80;;
17985;SDS011;9118;48.122;11.546;2022-11-12T07:15:58;22.30;;;11.13;;
17985;SDS011;9118;48.122;11.546;2022-11-12T07:18:26;16.07;;;10.57;;
17985;SDS011;9118;48.122;11.546;2022-11-12T07:20:58;17.27;;;10.53;;
17985;SDS011;9118;48.122;11.546;2022-11-12T07:23:26;15.40;;;10.90;;
17985;SDS011;9118;48.122;11.546;2022-11-12T07:25:56;13.40;;;10.17;;
17985;SDS011;9118;48.122;11.546;2022-11-12T07:28:26;14.50;;;9.80;;
17985;SDS011;9118;48.122;11.546;2022-11-12T07:30:55;18.90;;;13.30;;
17985;SDS011;9118;48.122;11.546;2022-11-12T07:33:23;13.30;;;10.20;;
17985;SDS011;9118;48.122;11.546;2022-11-12T07:35:57;13.50;;;10.47;;
17985;SDS011;9118;48.122;11.546;2022-11-12T07:38:26;12.07;;;9.63;;
17985;SDS011;9118;48.122;11.546;2022-11-12T07:41:00;12.00;;;10.00;;
17985;SDS011;9118;48.122;11.546;2022-11-12T07:43:31;13.00;;;9.67;;
17985;SDS011;9118;48.122;11.546;2022-11-12T07:46:00;11.83;;;9.37;;
17985;SDS011;9118;48.122;11.546;2022-11-12T07:48:29;12.87;;;9.40;;
17985;SDS011;9118;48.122;11.546;2022-11-12T07:50:59;11.73;;;9.67;;
17985;SDS011;9118;48.122;11.546;2022-11-12T07:53:27;13.93;;;9.97;;
17985;SDS011;9118;48.122;11.546;2022-11-12T07:55:56;10.00;;;8.70;;
17985;SDS011;9118;48.122;11.546;2022-11-12T07:58:29;10.47;;;9.33;;
17985;SDS011;9118;48.122;11.546;2022-11-12T08:01:05;14.43;;;10.17;;
17985;SDS011;9118;48.122;11.546;2022-11-12T08:03:33;11.23;;;9.77;;
17985;SDS011;9118;48.122;11.546;2022-11-12T08:06:02;12.00;;;9.13;;
17985;SDS011;9118;48.122;11.546;2022-11-12T08:08:29;11.20;;;8.90;;
17985;SDS011;9118;48.122;11.546;2022-11-12T08:10:57;13.17;;;9.83;;
17985;SDS011;9118;48.122;11.546;2022-11-12T08:13:25;13.83;;;10.43;;
17985;SDS011;9118;48.122;11.546;2022-11-12T08:15:57;14.60;;;10.67;;
17985;SDS011;9118;48.122;11.546;2022-11-12T08:18:25;12.80;;;10.13;;
17985;SDS011;9118;48.122;11.546;2022-11-12T08:20:57;12.10;;;10.03;;
17985;SDS011;9118;48.122;11.546;2022-11-12T08:23:25;13.00;;;10.00;;
17985;SDS011;9118;48.122;11.546;2022-11-12T08:25:56;11.33;;;9.73;;
17985;SDS011;9118;48.122;11.546;2022-11-12T08:28:25;24.17;;;15.63;;
17985;SDS011;9118;48.122;11.546;2022-11-12T08:30:53;13.13;;;10.53;;
17985;SDS011;9118;48.122;11.546;2022-11-12T08:33:22;11.53;;;9.83;;
17985;SDS011;9118;48.122;11.546;2022-11-12T08:35:50;11.33;;;9.47;;
17985;SDS011;9118;48.122;11.546;2022-11-12T08:38:17;12.30;;;10.00;;
17985;SDS011;9118;48.122;11.546;2022-11-12T08:40:45;12.20;;;10.40;;
17985;SDS011;9118;48.122;11.546;2022-11-12T08:43:12;12.37;;;9.87;;
17985;SDS011;9118;48.122;11.546;2022-11-12T08:45:40;11.90;;;9.87;;
17985;SDS011;9118;48.122;11.546;2022-11-12T08:48:09;12.20;;;9.73;;
17985;SDS011;9118;48.122;11.546;2022-11-12T08:50:40;12.80;;;9.20;;
17985;SDS011;9118;48.122;11.546;2022-11-12T08:53:08;12.60;;;10.27;;
17985;SDS011;9118;48.122;11.546;2022-11-12T08:55:37;11.53;;;9.33;;
17985;SDS011;9118;48.122;11.546;2022-11-12T08:58:05;11.30;;;8.47;;
17985;SDS011;9118;48.122;11.546;2022-11-12T09:00:35;9.00;;;7.93;;
17985;SDS011;9118;48.122;11.546;2022-11-12T09:03:05;10.03;;;8.80;;
17985;SDS011;9118;48.122;11.546;2022-11-12T09:05:34;10.83;;;9.43;;
17985;SDS011;9118;48.122;11.546;2022-11-12T09:08:04;11.00;;;9.47;;
17985;SDS011;9118;48.122;11.546;2022-11-12T09:10:33;12.23;;;9.63;;
17985;SDS011;9118;48.122;11.546;2022-11-12T09:13:01;11.70;;;9.93;;
17985;SDS011;9118;48.122;11.546;2022-11-12T09:15:30;12.70;;;10.17;;
17985;SDS011;9118;48.122;11.546;2022-11-12T09:17:59;12.43;;;10.17;;
17985;SDS011;9118;48.122;11.546;2022-11-12T09:20:28;11.77;;;9.97;;
17985;SDS011;9118;48.122;11.546;2022-11-12T09:22:58;11.73;;;9.47;;
17985;SDS011;9118;48.122;11.546;2022-11-12T09:25:28;12.23;;;9.83;;
17985;SDS011;9118;48.122;11.546;2022-11-12T09:27:55;10.80;;;9.30;;
17985;SDS011;9118;48.122;11.546;2022-11-12T09:30:23;16.53;;;10.10;;
17985;SDS011;9118;48.122;11.546;2022-11-12T09:32:55;10.97;;;9.77;;
17985;SDS011;9118;48.122;11.546;2022-11-12T09:35:23;10.53;;;9.37;;
17985;SDS011;9118;48.122;11.546;2022-11-12T09:37:50;12.57;;;10.63;;
17985;SDS011;9118;48.122;11.546;2022-11-12T09:40:18;12.03;;;10.27;;
17985;SDS011;9118;48.122;11.546;2022-11-12T09:42:50;12.07;;;9.93;;
17985;SDS011;9118;48.122;11.546;2022-11-12T09:45:21;11.43;;;9.40;;
17985;SDS011;9118;48.122;11.546;2022-11-12T09:47:53;11.60;;;10.20;;
17985;SDS011;9118;48.122;11.546;2022-11-12T09:50:24;11.03;;;9.87;;
17985;SDS011;9118;48.122;11.546;2022-11-12T09:52:55;12.40;;;9.77;;
17985;SDS011;9118;48.122;11.546;2022-11-12T09:55:29;11.23;;;10.03;;
17985;SDS011;9118;48.122;11.546;2022-11-12T09:58:00;12.07;;;10.13;;
17985;SDS011;9118;48.122;11.546;2022-11-12T10:00:31;13.00;;;10.30;;
17985;SDS011;9118;48.122;11.546;2022-11-12T10:03:00;12.07;;;10.00;;
17985;SDS011;9118;48.122;11.546;2022-11-12T10:05:33;12.10;;;10.00;;
17985;SDS011;9118;48.122;11.546;2022-11-12T10:08:18;12.90;;;10.33;;
17985;SDS011;9118;48.122;11.546;2022-11-12T10:11:06;11.97;;;10.27;;
17985;SDS011;9118;48.122;11.546;2022-11-12T10:13:49;16.63;;;13.57;;
17985;SDS011;9118;48.122;11.546;2022-11-12T10:16:32;14.33;;;10.87;;
17985;SDS011;9118;48.122;11.546;2022-11-12T10:19:18;12.50;;;10.60;;
17985;SDS011;9118;48.122;11.546;2022-11-12T10:21:56;13.20;;;10.10;;
17985;SDS011;9118;48.122;11.546;2022-11-12T10:24:34;11.90;;;10.30;;
17985;SDS011;9118;48.122;11.546;2022-11-12T10:27:08;11.50;;;10.30;;
17985;SDS011;9118;48.122;11.546;2022-11-12T10:29:45;12.20;;;10.20;;
17985;SDS011;9118;48.122;11.546;2022-11-12T10:32:17;13.43;;;10.97;;
17985;SDS011;9118;48.122;11.546;2022-11-12T10:34:48;12.80;;;10.83;;
17985;SDS011;9118;48.122;11.546;2022-11-12T10:37:18;12.70;;;10.70;;
17985;SDS011;9118;48.122;11.546;2022-11-12T10:39:49;12.97;;;10.67;;
17985;SDS011;9118;48.122;11.546;2022-11-12T10:42:18;13.03;;;10.63;;
17985;SDS011;9118;48.122;11.546;2022-11-12T10:44:51;14.80;;;11.23;;
17985;SDS011;9118;48.122;11.546;2022-11-12T10:47:29;12.97;;;10.70;;
17985;SDS011;9118;48.122;11.546;2022-11-12T10:50:01;13.40;;;11.50;;
17985;SDS011;9118;48.122;11.546;2022-11-12T10:52:53;13.90;;;11.60;;
17985;SDS011;9118;48.122;11.546;2022-11-12T10:55:23;15.50;;;13.83;;
17985;SDS011;9118;48.122;11.546;2022-11-12T10:58:02;16.07;;;12.90;;
17985;SDS011;9118;48.122;11.546;2022-11-12T11:00:33;14.93;;;11.50;;
17985;SDS011;9118;48.122;11.546;2022-11-12T11:03:01;13.97;;;11.27;;
17985;SDS011;9118;48.122;11.546;2022-11-12T11:05:33;13.50;;;11.93;;
17985;SDS011;9118;48.122;11.546;2022-11-12T11:08:03;14.70;;;11.67;;
17985;SDS011;9118;48.122;11.546;2022-11-12T11:10:31;15.23;;;11.73;;
17985;SDS011;9118;48.122;11.546;2022-11-12T11:13:19;14.90;;;12.00;;
17985;SDS011;9118;48.122;11.546;2022-11-12T11:15:58;13.33;;;11.60;;
17985;SDS011;9118;48.122;11.546;2022-11-12T11:18:26;14.13;;;12.57;;
17985;SDS011;9118;48.122;11.546;2022-11-12T11:20:59;16.93;;;13.73;;
17985;SDS011;9118;48.122;11.546;2022-11-12T11:23:33;15.77;;;13.27;;
17985;SDS011;9118;48.122;11.546;2022-11-12T11:26:13;15.60;;;13.30;;
17985;SDS011;9118;48.122;11.546;2022-11-12T11:28:50;15.23;;;13.23;;
17985;SDS011;9118;48.122;11.546;2022-11-12T11:31:25;16.63;;;14.00;;
17985;SDS011;9118;48.122;11.546;2022-11-12T11:34:06;15.97;;;13.60;;
17985;SDS011;9118;48.122;11.546;2022-11-12T11:36:45;15.80;;;13.83;;
17985;SDS011;9118;48.122;11.546;2022-11-12T11:39:23;17.53;;;13.33;;
17985;SDS011;9118;48.122;11.546;2022-11-12T11:42:02;15.37;;;13.33;;
17985;SDS011;9118;48.122;11.546;2022-11-12T11:44:42;18.17;;;14.23;;
17985;SDS011;9118;48.122;11.546;2022-11-12T11:47:28;16.43;;;14.57;;
17985;SDS011;9118;48.122;11.546;2022-11-12T11:50:08;19.40;;;15.17;;
17985;SDS011;9118;48.122;11.546;2022-11-12T11:52:46;17.53;;;15.13;;
17985;SDS011;9118;48.122;11.546;2022-11-12T11:55:21;21.37;;;15.10;;
17985;SDS011;9118;48.122;11.546;2022-11-12T11:57:58;19.53;;;15.50;;
17985;SDS011;9118;48.122;11.546;2022-11-12T12:00:34;18.27;;;15.33;;
17985;SDS011;9118;48.122;11.546;2022-11-12T12:03:18;22.60;;;15.97;;
17985;SDS011;9118;48.122;11.546;2022-11-12T12:08:47;20.73;;;15.73;;
17985;SDS011;9118;48.122;11.546;2022-11-12T12:11:29;20.60;;;16.17;;
17985;SDS011;9118;48.122;11.546;2022-11-12T12:14:14;21.37;;;16.63;;
17985;SDS011;9118;48.122;11.546;2022-11-12T12:16:53;21.10;;;16.07;;
17985;SDS011;9118;48.122;11.546;2022-11-12T12:19:39;20.67;;;16.30;;
17985;SDS011;9118;48.122;11.546;2022-11-12T12:22:13;19.80;;;16.33;;
17985;SDS011;9118;48.122;11.546;2022-11-12T12:24:45;22.60;;;17.50;;
17985;SDS011;9118;48.122;11.546;2022-11-12T12:27:16;20.50;;;16.77;;
17985;SDS011;9118;48.122;11.546;2022-11-12T12:29:48;22.60;;;17.03;;
17985;SDS011;9118;48.122;11.546;2022-11-12T12:32:18;19.37;;;16.17;;
17985;SDS011;9118;48.122;11.546;2022-11-12T12:34:55;20.37;;;16.83;;
17985;SDS011;9118;48.122;11.546;2022-11-12T12:37:30;25.87;;;16.90;;
17985;SDS011;9118;48.122;11.546;2022-11-12T12:40:04;19.73;;;15.97;;
17985;SDS011;9118;48.122;11.546;2022-11-12T12:42:44;20.97;;;17.27;;
17985;SDS011;9118;48.122;11.546;2022-11-12T12:45:23;20.07;;;16.20;;
17985;SDS011;9118;48.122;11.546;2022-11-12T12:47:57;20.67;;;16.33;;
17985;SDS011;9118;48.122;11.546;2022-11-12T12:50:28;20.83;;;16.37;;
17985;SDS011;9118;48.122;11.546;2022-11-12T12:53:00;21.10;;;16.93;;
17985;SDS011;9118;48.122;11.546;2022-11-12T12:55:32;20.20;;;15.87;;
17985;SDS011;9118;48.122;11.546;2022-11-12T12:58:17;21.77;;;16.17;;
17985;SDS011;9118;48.122;11.546;2022-11-12T13:00:52;19.97;;;16.17;;
17985;SDS011;9118;48.122;11.546;2022-11-12T13:06:28;18.17;;;15.80;;
17985;SDS011;9118;48.122;11.546;2022-11-12T13:08:59;19.70;;;15.60;;
17985;SDS011;9118;48.122;11.546;2022-11-12T13:11:46;18.73;;;15.23;;
17985;SDS011;9118;48.122;11.546;2022-11-12T13:14:52;17.17;;;14.70;;
17985;SDS011;9118;48.122;11.546;2022-11-12T13:17:48;17.20;;;13.90;;
17985;SDS011;9118;48.122;11.546;2022-11-12T13:26:40;18.77;;;14.43;;
17985;SDS011;9118;48.122;11.546;2022-11-12T13:32:22;19.80;;;15.00;;
17985;SDS011;9118;48.122;11.546;2022-11-12T13:37:50;18.27;;;13.73;;
17985;SDS011;9118;48.122;11.546;2022-11-12T13:40:24;17.83;;;13.70;;
17985;SDS011;9118;48.122;11.546;2022-11-12T13:43:05;16.73;;;13.67;;
17985;SDS011;9118;48.122;11.546;2022-11-12T13:45:44;19.17;;;14.37;;
17985;SDS011;9118;48.122;11.546;2022-11-12T13:48:16;17.17;;;14.30;;
17985;SDS011;9118;48.122;11.546;2022-11-12T13:50:48;19.20;;;14.60;;
17985;SDS011;9118;48.122;11.546;2022-11-12T13:53:19;19.47;;;15.10;;
17985;SDS011;9118;48.122;11.546;2022-11-12T13:55:52;23.53;;;16.37;;
17985;SDS011;9118;48.122;11.546;2022-11-12T13:58:25;21.93;;;14.83;;
17985;SDS011;9118;48.122;11.546;2022-11-12T14:00:54;18.83;;;14.50;;
17985;SDS011;9118;48.122;11.546;2022-11-12T14:03:24;17.87;;;15.23;;
17985;SDS011;9118;48.122;11.546;2022-11-12T14:05:55;20.70;;;16.00;;
17985;SDS011;9118;48.122;11.546;2022-11-12T14:08:32;22.50;;;15.67;;
17985;SDS011;9118;48.122;11.546;2022-11-12T14:11:18;18.03;;;14.37;;
17985;SDS011;9118;48.122;11.546;2022-11-12T14:14:04;18.27;;;13.63;;
17985;SDS011;9118;48.122;11.546;2022-11-12T14:16:43;19.20;;;14.83;;
17985;SDS011;9118;48.122;11.546;2022-11-12T14:22:19;17.13;;;13.17;;
17985;SDS011;9118;48.122;11.546;2022-11-12T14:24:50;14.63;;;12.83;;
17985;SDS011;9118;48.122;11.546;2022-11-12T14:27:34;16.03;;;13.90;;
17985;SDS011;9118;48.122;11.546;2022-11-12T14:30:10;20.13;;;16.77;;
17985;SDS011;9118;48.122;11.546;2022-11-12T14:32:42;20.97;;;14.17;;
17985;SDS011;9118;48.122;11.546;2022-11-12T14:38:11;17.23;;;13.60;;
17985;SDS011;9118;48.122;11.546;2022-11-12T14:40:44;16.73;;;13.47;;
17985;SDS011;9118;48.122;11.546;2022-11-12T14:43:20;21.00;;;14.63;;
17985;SDS011;9118;48.122;11.546;2022-11-12T14:45:56;17.30;;;15.03;;
17985;SDS011;9118;48.122;11.546;2022-11-12T14:48:25;19.70;;;14.40;;
17985;SDS011;9118;48.122;11.546;2022-11-12T14:50:55;19.67;;;15.07;;
17985;SDS011;9118;48.122;11.546;2022-11-12T14:53:28;18.50;;;15.13;;
17985;SDS011;9118;48.122;11.546;2022-11-12T14:55:58;20.40;;;14.17;;
17985;SDS011;9118;48.122;11.546;2022-11-12T14:58:30;17.67;;;13.67;;
17985;SDS011;9118;48.122;11.546;2022-11-12T15:01:17;16.77;;;13.70;;
17985;SDS011;9118;48.122;11.546;2022-11-12T15:03:46;16.13;;;13.63;;
17985;SDS011;9118;48.122;11.546;2022-11-12T15:06:15;15.80;;;13.60;;
17985;SDS011;9118;48.122;11.546;2022-11-12T15:08:54;16.77;;;13.53;;
17985;SDS011;9118;48.122;11.546;2022-11-12T15:11:24;19.87;;;14.10;;